sensor_id;sensor_type;location;lat;lon;timestamp;pressure;altitude;pressure_sealevel;temperature;humidity
76726;BME280;65651;53.154;17.916;2024-01-15T00:00:41;98567.16;;;0.40;89.97
76726;BME280;65651;53.154;17.916;2024-01-15T00:03:30;98567.86;;;0.38;90.01
76726;BME280;65651;53.154;17.916;2024-01-15T00:06:11;98562.69;;;0.37;90.01
76726;BME280;65651;53.154;17.916;2024-01-15T00:08:38;98557.94;;;0.34;90.01
76726;BME280;65651;53.154;17.916;2024-01-15T00:11:05;98553.90;;;0.34;90.18
76726;BME280;65651;53.154;17.916;2024-01-15T00:13:32;98555.77;;;0.33;90.47
76726;BME280;65651;53.154;17.916;2024-01-15T00:15:59;98548.66;;;0.34;90.24
76726;BME280;65651;53.154;17.916;2024-01-15T00:18:25;98544.20;;;0.34;90.45
76726;BME280;65651;53.154;17.916;2024-01-15T00:20:52;98540.64;;;0.35;90.42
76726;BME280;65651;53.154;17.916;2024-01-15T00:23:22;98533.67;;;0.34;90.34
76726;BME280;65651;53.154;17.916;2024-01-15T00:25:50;98533.70;;;0.31;90.54
76726;BME280;65651;53.154;17.916;2024-01-15T00:28:18;98522.33;;;0.26;90.46
76726;BME280;65651;53.154;17.916;2024-01-15T00:30:44;98516.27;;;0.27;90.69
76726;BME280;65651;53.154;17.916;2024-01-15T00:33:13;98511.95;;;0.26;90.57
76726;BME280;65651;53.154;17.916;2024-01-15T00:35:41;98507.85;;;0.26;90.48
76726;BME280;65651;53.154;17.916;2024-01-15T00:38:08;98506.74;;;0.26;90.74
76726;BME280;65651;53.154;17.916;2024-01-15T00:40:34;98499.33;;;0.29;90.83
76726;BME280;65651;53.154;17.916;2024-01-15T00:43:01;98499.02;;;0.30;90.90
76726;BME280;65651;53.154;17.916;2024-01-15T00:45:28;98488.89;;;0.31;91.08
76726;BME280;65651;53.154;17.916;2024-01-15T00:47:55;98486.08;;;0.31;90.86
76726;BME280;65651;53.154;17.916;2024-01-15T00:50:23;98482.95;;;0.30;90.93
76726;BME280;65651;53.154;17.916;2024-01-15T00:52:50;98476.58;;;0.31;90.84
76726;BME280;65651;53.154;17.916;2024-01-15T00:55:16;98471.27;;;0.31;91.10
76726;BME280;65651;53.154;17.916;2024-01-15T00:57:43;98466.88;;;0.31;91.04
76726;BME280;65651;53.154;17.916;2024-01-15T01:00:10;98465.27;;;0.31;90.97
76726;BME280;65651;53.154;17.916;2024-01-15T01:02:37;98454.89;;;0.30;91.03
76726;BME280;65651;53.154;17.916;2024-01-15T01:05:07;98456.81;;;0.29;91.05
76726;BME280;65651;53.154;17.916;2024-01-15T01:07:34;98455.77;;;0.24;91.02
76726;BME280;65651;53.154;17.916;2024-01-15T01:10:00;98448.38;;;0.22;90.89
76726;BME280;65651;53.154;17.916;2024-01-15T01:12:27;98440.50;;;0.21;91.31
76726;BME280;65651;53.154;17.916;2024-01-15T01:14:54;98437.23;;;0.22;91.42
76726;BME280;65651;53.154;17.916;2024-01-15T01:17:20;98430.94;;;0.23;91.14
76726;BME280;65651;53.154;17.916;2024-01-15T01:19:47;98426.90;;;0.26;91.47
76726;BME280;65651;53.154;17.916;2024-01-15T01:22:14;98421.68;;;0.25;91.37
76726;BME280;65651;53.154;17.916;2024-01-15T01:24:40;98417.92;;;0.30;91.62
76726;BME280;65651;53.154;17.916;2024-01-15T01:27:07;98417.54;;;0.30;91.35
76726;BME280;65651;53.154;17.916;2024-01-15T01:29:34;98417.36;;;0.30;91.29
76726;BME280;65651;53.154;17.916;2024-01-15T01:32:01;98413.25;;;0.31;91.43
76726;BME280;65651;53.154;17.916;2024-01-15T01:34:28;98412.14;;;0.31;91.32
76726;BME280;65651;53.154;17.916;2024-01-15T01:36:54;98407.66;;;0.32;91.18
76726;BME280;65651;53.154;17.916;2024-01-15T01:39:23;98403.35;;;0.33;91.38
76726;BME280;65651;53.154;17.916;2024-01-15T01:41:50;98399.52;;;0.34;91.27
76726;BME280;65651;53.154;17.916;2024-01-15T01:44:17;98395.65;;;0.34;91.52
76726;BME280;65651;53.154;17.916;2024-01-15T01:46:44;98390.61;;;0.35;91.47
76726;BME280;65651;53.154;17.916;2024-01-15T01:49:11;98385.88;;;0.37;91.51
76726;BME280;65651;53.154;17.916;2024-01-15T01:51:38;98383.95;;;0.36;91.26
76726;BME280;65651;53.154;17.916;2024-01-15T01:54:06;98380.80;;;0.36;91.29
76726;BME280;65651;53.154;17.916;2024-01-15T01:56:41;98374.59;;;0.35;91.34
76726;BME280;65651;53.154;17.916;2024-01-15T01:59:13;98373.42;;;0.34;91.37
76726;BME280;65651;53.154;17.916;2024-01-15T02:01:40;98369.92;;;0.34;91.16
76726;BME280;65651;53.154;17.916;2024-01-15T02:04:13;98360.05;;;0.33;91.26
76726;BME280;65651;53.154;17.916;2024-01-15T02:06:40;98352.50;;;0.33;91.25
76726;BME280;65651;53.154;17.916;2024-01-15T02:09:08;98349.61;;;0.32;91.44
76726;BME280;65651;53.154;17.916;2024-01-15T02:11:36;98345.73;;;0.32;91.27
76726;BME280;65651;53.154;17.916;2024-01-15T02:14:03;98339.25;;;0.31;91.36
76726;BME280;65651;53.154;17.916;2024-01-15T02:16:29;98341.55;;;0.31;91.23
76726;BME280;65651;53.154;17.916;2024-01-15T02:18:56;98340.55;;;0.31;91.41
76726;BME280;65651;53.154;17.916;2024-01-15T02:21:22;98337.00;;;0.31;91.14
76726;BME280;65651;53.154;17.916;2024-01-15T02:23:48;98332.21;;;0.31;91.08
76726;BME280;65651;53.154;17.916;2024-01-15T02:26:15;98331.59;;;0.32;91.28
76726;BME280;65651;53.154;17.916;2024-01-15T02:28:42;98329.66;;;0.32;91.11
76726;BME280;65651;53.154;17.916;2024-01-15T02:31:10;98323.78;;;0.33;91.08
76726;BME280;65651;53.154;17.916;2024-01-15T02:33:37;98323.53;;;0.33;91.00
76726;BME280;65651;53.154;17.916;2024-01-15T02:36:03;98318.92;;;0.34;90.85
76726;BME280;65651;53.154;17.916;2024-01-15T02:38:30;98314.73;;;0.33;90.87
76726;BME280;65651;53.154;17.916;2024-01-15T02:40:56;98312.02;;;0.34;90.73
76726;BME280;65651;53.154;17.916;2024-01-15T02:43:23;98310.93;;;0.34;90.98
76726;BME280;65651;53.154;17.916;2024-01-15T02:45:50;98308.29;;;0.34;90.84
76726;BME280;65651;53.154;17.916;2024-01-15T02:48:16;98303.47;;;0.35;90.98
76726;BME280;65651;53.154;17.916;2024-01-15T02:50:43;98291.18;;;0.34;90.81
76726;BME280;65651;53.154;17.916;2024-01-15T02:53:09;98289.83;;;0.34;90.99
76726;BME280;65651;53.154;17.916;2024-01-15T02:55:36;98282.83;;;0.33;91.00
76726;BME280;65651;53.154;17.916;2024-01-15T02:58:03;98278.27;;;0.33;90.96
76726;BME280;65651;53.154;17.916;2024-01-15T03:00:30;98273.36;;;0.32;90.90
76726;BME280;65651;53.154;17.916;2024-01-15T03:02:57;98272.17;;;0.32;90.84
76726;BME280;65651;53.154;17.916;2024-01-15T03:05:23;98270.64;;;0.31;91.10
76726;BME280;65651;53.154;17.916;2024-01-15T03:07:50;98270.84;;;0.31;91.22
76726;BME280;65651;53.154;17.916;2024-01-15T03:10:16;98263.96;;;0.29;91.10
76726;BME280;65651;53.154;17.916;2024-01-15T03:12:43;98262.80;;;0.26;91.36
76726;BME280;65651;53.154;17.916;2024-01-15T03:15:09;98256.02;;;0.19;91.27
76726;BME280;65651;53.154;17.916;2024-01-15T03:17:36;98258.19;;;0.16;91.56
76726;BME280;65651;53.154;17.916;2024-01-15T03:20:06;98252.59;;;0.12;91.71
76726;BME280;65651;53.154;17.916;2024-01-15T03:22:35;98246.33;;;0.07;91.96
76726;BME280;65651;53.154;17.916;2024-01-15T03:25:03;98238.24;;;0.03;91.94
76726;BME280;65651;53.154;17.916;2024-01-15T03:27:30;98234.23;;;0.01;92.21
76726;BME280;65651;53.154;17.916;2024-01-15T03:29:56;98229.32;;;-0.02;92.27
76726;BME280;65651;53.154;17.916;2024-01-15T03:32:23;98226.91;;;-0.04;92.47
76726;BME280;65651;53.154;17.916;2024-01-15T03:34:50;98228.77;;;-0.05;92.57
76726;BME280;65651;53.154;17.916;2024-01-15T03:37:18;98223.80;;;-0.07;92.44
76726;BME280;65651;53.154;17.916;2024-01-15T03:39:45;98223.25;;;-0.09;92.82
76726;BME280;65651;53.154;17.916;2024-01-15T03:42:38;98219.80;;;-0.11;92.99
76726;BME280;65651;53.154;17.916;2024-01-15T03:45:08;98215.42;;;-0.16;93.73
76726;BME280;65651;53.154;17.916;2024-01-15T03:47:35;98212.80;;;-0.22;94.30
76726;BME280;65651;53.154;17.916;2024-01-15T03:50:01;98208.27;;;-0.24;94.75
76726;BME280;65651;53.154;17.916;2024-01-15T03:52:28;98207.45;;;-0.27;95.13
76726;BME280;65651;53.154;17.916;2024-01-15T03:54:54;98205.42;;;-0.30;95.38
76726;BME280;65651;53.154;17.916;2024-01-15T03:57:21;98198.98;;;-0.31;95.68
76726;BME280;65651;53.154;17.916;2024-01-15T03:59:47;98200.09;;;-0.33;95.96
76726;BME280;65651;53.154;17.916;2024-01-15T04:02:14;98197.47;;;-0.34;96.12
76726;BME280;65651;53.154;17.916;2024-01-15T04:04:42;98200.30;;;-0.38;96.42
76726;BME280;65651;53.154;17.916;2024-01-15T04:07:11;98196.34;;;-0.37;96.75
76726;BME280;65651;53.154;17.916;2024-01-15T04:09:38;98193.84;;;-0.36;96.90
76726;BME280;65651;53.154;17.916;2024-01-15T04:12:05;98193.77;;;-0.38;96.98
76726;BME280;65651;53.154;17.916;2024-01-15T04:14:31;98188.41;;;-0.39;97.21
76726;BME280;65651;53.154;17.916;2024-01-15T04:16:58;98190.70;;;-0.39;97.00
76726;BME280;65651;53.154;17.916;2024-01-15T04:19:27;98190.42;;;-0.40;97.43
76726;BME280;65651;53.154;17.916;2024-01-15T04:21:54;98196.45;;;-0.38;97.40
76726;BME280;65651;53.154;17.916;2024-01-15T04:24:21;98194.40;;;-0.41;97.39
76726;BME280;65651;53.154;17.916;2024-01-15T04:26:47;98194.58;;;-0.35;97.63
76726;BME280;65651;53.154;17.916;2024-01-15T04:29:14;98190.48;;;-0.33;97.55
76726;BME280;65651;53.154;17.916;2024-01-15T04:31:40;98181.83;;;-0.33;97.86
76726;BME280;65651;53.154;17.916;2024-01-15T04:34:07;98174.68;;;-0.33;97.66
76726;BME280;65651;53.154;17.916;2024-01-15T04:36:39;98173.52;;;-0.34;97.70
76726;BME280;65651;53.154;17.916;2024-01-15T04:39:06;98168.29;;;-0.35;97.79
76726;BME280;65651;53.154;17.916;2024-01-15T04:41:34;98167.06;;;-0.35;97.69
76726;BME280;65651;53.154;17.916;2024-01-15T04:44:01;98160.60;;;-0.34;97.48
76726;BME280;65651;53.154;17.916;2024-01-15T04:46:28;98160.91;;;-0.33;97.66
76726;BME280;65651;53.154;17.916;2024-01-15T04:48:55;98155.12;;;-0.33;97.71
76726;BME280;65651;53.154;17.916;2024-01-15T04:51:23;98158.45;;;-0.33;97.65
76726;BME280;65651;53.154;17.916;2024-01-15T04:53:50;98159.79;;;-0.32;97.54
76726;BME280;65651;53.154;17.916;2024-01-15T04:56:16;98165.55;;;-0.32;97.73
76726;BME280;65651;53.154;17.916;2024-01-15T04:58:43;98161.80;;;-0.31;97.68
76726;BME280;65651;53.154;17.916;2024-01-15T05:01:09;98166.36;;;-0.31;97.71
76726;BME280;65651;53.154;17.916;2024-01-15T05:03:36;98168.61;;;-0.31;97.76
76726;BME280;65651;53.154;17.916;2024-01-15T05:06:03;98175.29;;;-0.32;97.71
76726;BME280;65651;53.154;17.916;2024-01-15T05:08:30;98168.95;;;-0.34;97.93
76726;BME280;65651;53.154;17.916;2024-01-15T05:10:56;98166.03;;;-0.37;97.89
76726;BME280;65651;53.154;17.916;2024-01-15T05:13:23;98171.89;;;-0.39;97.88
76726;BME280;65651;53.154;17.916;2024-01-15T05:15:49;98173.86;;;-0.44;97.91
76726;BME280;65651;53.154;17.916;2024-01-15T05:18:16;98172.97;;;-0.47;97.87
76726;BME280;65651;53.154;17.916;2024-01-15T05:20:44;98174.32;;;-0.53;97.76
76726;BME280;65651;53.154;17.916;2024-01-15T05:23:10;98175.39;;;-0.57;97.76
76726;BME280;65651;53.154;17.916;2024-01-15T05:25:37;98177.75;;;-0.58;97.62
76726;BME280;65651;53.154;17.916;2024-01-15T05:28:05;98174.58;;;-0.58;97.81
76726;BME280;65651;53.154;17.916;2024-01-15T05:30:32;98172.16;;;-0.57;98.04
76726;BME280;65651;53.154;17.916;2024-01-15T05:32:58;98167.30;;;-0.55;97.58
76726;BME280;65651;53.154;17.916;2024-01-15T05:35:26;98161.89;;;-0.53;97.82
76726;BME280;65651;53.154;17.916;2024-01-15T05:37:53;98159.16;;;-0.52;97.89
76726;BME280;65651;53.154;17.916;2024-01-15T05:40:19;98158.77;;;-0.52;97.77
76726;BME280;65651;53.154;17.916;2024-01-15T05:42:46;98152.52;;;-0.51;97.85
76726;BME280;65651;53.154;17.916;2024-01-15T05:45:12;98152.61;;;-0.50;97.79
76726;BME280;65651;53.154;17.916;2024-01-15T05:47:39;98151.28;;;-0.51;97.85
76726;BME280;65651;53.154;17.916;2024-01-15T05:50:06;98153.79;;;-0.52;97.75
76726;BME280;65651;53.154;17.916;2024-01-15T05:52:33;98151.33;;;-0.53;98.00
76726;BME280;65651;53.154;17.916;2024-01-15T05:54:59;98152.79;;;-0.52;98.03
76726;BME280;65651;53.154;17.916;2024-01-15T05:57:26;98145.72;;;-0.50;97.77
76726;BME280;65651;53.154;17.916;2024-01-15T05:59:53;98141.17;;;-0.48;97.82
76726;BME280;65651;53.154;17.916;2024-01-15T06:02:19;98141.92;;;-0.47;97.95
76726;BME280;65651;53.154;17.916;2024-01-15T06:04:46;98137.05;;;-0.46;97.86
76726;BME280;65651;53.154;17.916;2024-01-15T06:07:13;98134.58;;;-0.45;98.03
76726;BME280;65651;53.154;17.916;2024-01-15T06:09:39;98135.80;;;-0.45;97.93
76726;BME280;65651;53.154;17.916;2024-01-15T06:12:07;98124.78;;;-0.46;97.75
76726;BME280;65651;53.154;17.916;2024-01-15T06:14:34;98121.11;;;-0.46;97.72
76726;BME280;65651;53.154;17.916;2024-01-15T06:17:00;98127.81;;;-0.47;97.85
76726;BME280;65651;53.154;17.916;2024-01-15T06:19:27;98128.20;;;-0.47;97.76
76726;BME280;65651;53.154;17.916;2024-01-15T06:21:53;98128.55;;;-0.47;98.01
76726;BME280;65651;53.154;17.916;2024-01-15T06:24:20;98125.04;;;-0.47;97.96
76726;BME280;65651;53.154;17.916;2024-01-15T06:26:47;98121.98;;;-0.47;97.94
76726;BME280;65651;53.154;17.916;2024-01-15T06:29:14;98126.84;;;-0.46;97.95
76726;BME280;65651;53.154;17.916;2024-01-15T06:31:40;98121.05;;;-0.44;97.87
76726;BME280;65651;53.154;17.916;2024-01-15T06:34:07;98120.25;;;-0.43;97.91
76726;BME280;65651;53.154;17.916;2024-01-15T06:36:33;98123.42;;;-0.41;97.78
76726;BME280;65651;53.154;17.916;2024-01-15T06:39:00;98123.52;;;-0.40;97.90
76726;BME280;65651;53.154;17.916;2024-01-15T06:41:27;98120.38;;;-0.39;97.83
76726;BME280;65651;53.154;17.916;2024-01-15T06:43:54;98112.34;;;-0.38;97.70
76726;BME280;65651;53.154;17.916;2024-01-15T06:46:22;98116.98;;;-0.36;97.76
76726;BME280;65651;53.154;17.916;2024-01-15T06:48:49;98114.49;;;-0.34;97.84
76726;BME280;65651;53.154;17.916;2024-01-15T06:51:16;98106.81;;;-0.33;97.89
76726;BME280;65651;53.154;17.916;2024-01-15T06:53:42;98112.13;;;-0.33;97.79
76726;BME280;65651;53.154;17.916;2024-01-15T06:56:09;98115.88;;;-0.32;97.87
76726;BME280;65651;53.154;17.916;2024-01-15T06:58:35;98110.78;;;-0.32;97.64
76726;BME280;65651;53.154;17.916;2024-01-15T07:01:02;98110.48;;;-0.33;97.88
76726;BME280;65651;53.154;17.916;2024-01-15T07:03:29;98109.48;;;-0.31;97.69
76726;BME280;65651;53.154;17.916;2024-01-15T07:05:55;98112.80;;;-0.31;97.74
76726;BME280;65651;53.154;17.916;2024-01-15T07:08:22;98112.86;;;-0.30;97.76
76726;BME280;65651;53.154;17.916;2024-01-15T07:10:49;98110.42;;;-0.28;97.64
76726;BME280;65651;53.154;17.916;2024-01-15T07:13:15;98109.37;;;-0.26;97.62
76726;BME280;65651;53.154;17.916;2024-01-15T07:15:42;98110.92;;;-0.26;97.49
76726;BME280;65651;53.154;17.916;2024-01-15T07:18:08;98114.73;;;-0.27;97.35
76726;BME280;65651;53.154;17.916;2024-01-15T07:20:35;98109.13;;;-0.29;97.41
76726;BME280;65651;53.154;17.916;2024-01-15T07:23:01;98111.48;;;-0.32;97.51
76726;BME280;65651;53.154;17.916;2024-01-15T07:25:28;98115.77;;;-0.33;97.40
76726;BME280;65651;53.154;17.916;2024-01-15T07:27:55;98117.08;;;-0.37;97.71
76726;BME280;65651;53.154;17.916;2024-01-15T07:30:22;98118.95;;;-0.35;97.52
76726;BME280;65651;53.154;17.916;2024-01-15T07:32:48;98122.09;;;-0.34;97.84
76726;BME280;65651;53.154;17.916;2024-01-15T07:35:15;98122.20;;;-0.34;97.71
76726;BME280;65651;53.154;17.916;2024-01-15T07:37:41;98121.20;;;-0.32;97.61
76726;BME280;65651;53.154;17.916;2024-01-15T07:40:09;98120.14;;;-0.31;97.77
76726;BME280;65651;53.154;17.916;2024-01-15T07:42:37;98119.89;;;-0.28;97.71
76726;BME280;65651;53.154;17.916;2024-01-15T07:45:05;98118.30;;;-0.26;97.94
76726;BME280;65651;53.154;17.916;2024-01-15T07:47:32;98118.20;;;-0.26;97.68
76726;BME280;65651;53.154;17.916;2024-01-15T07:49:58;98113.29;;;-0.19;97.84
76726;BME280;65651;53.154;17.916;2024-01-15T07:52:25;98114.29;;;-0.15;97.81
76726;BME280;65651;53.154;17.916;2024-01-15T07:54:51;98116.10;;;-0.09;97.60
76726;BME280;65651;53.154;17.916;2024-01-15T07:57:18;98117.96;;;-0.07;97.59
76726;BME280;65651;53.154;17.916;2024-01-15T07:59:44;98116.16;;;-0.04;97.60
76726;BME280;65651;53.154;17.916;2024-01-15T08:02:11;98117.41;;;-0.00;97.55
76726;BME280;65651;53.154;17.916;2024-01-15T08:04:38;98108.63;;;0.03;97.59
76726;BME280;65651;53.154;17.916;2024-01-15T08:07:05;98107.42;;;0.09;97.45
76726;BME280;65651;53.154;17.916;2024-01-15T08:09:33;98106.95;;;0.15;97.34
76726;BME280;65651;53.154;17.916;2024-01-15T08:12:00;98106.98;;;0.17;97.27
76726;BME280;65651;53.154;17.916;2024-01-15T08:14:27;98104.90;;;0.18;97.33
76726;BME280;65651;53.154;17.916;2024-01-15T08:16:53;98100.69;;;0.22;97.45
76726;BME280;65651;53.154;17.916;2024-01-15T08:19:20;98095.72;;;0.24;97.15
76726;BME280;65651;53.154;17.916;2024-01-15T08:21:47;98100.03;;;0.20;97.11
76726;BME280;65651;53.154;17.916;2024-01-15T08:24:16;98099.61;;;0.15;97.15
76726;BME280;65651;53.154;17.916;2024-01-15T08:26:48;98104.58;;;0.14;97.18
76726;BME280;65651;53.154;17.916;2024-01-15T08:29:17;98102.59;;;0.21;96.99
76726;BME280;65651;53.154;17.916;2024-01-15T08:31:47;98103.14;;;0.30;96.88
76726;BME280;65651;53.154;17.916;2024-01-15T08:34:14;98101.20;;;0.32;96.89
76726;BME280;65651;53.154;17.916;2024-01-15T08:36:40;98104.44;;;0.38;96.68
76726;BME280;65651;53.154;17.916;2024-01-15T08:39:07;98104.48;;;0.53;96.78
76726;BME280;65651;53.154;17.916;2024-01-15T08:41:35;98100.81;;;0.64;96.71
76726;BME280;65651;53.154;17.916;2024-01-15T08:44:02;98100.28;;;0.71;96.61
76726;BME280;65651;53.154;17.916;2024-01-15T08:46:29;98094.05;;;0.77;96.33
76726;BME280;65651;53.154;17.916;2024-01-15T08:48:57;98092.60;;;0.89;96.18
76726;BME280;65651;53.154;17.916;2024-01-15T08:51:24;98096.77;;;0.95;96.12
76726;BME280;65651;53.154;17.916;2024-01-15T08:53:50;98097.77;;;0.98;96.09
76726;BME280;65651;53.154;17.916;2024-01-15T08:56:21;98094.38;;;0.89;96.04
76726;BME280;65651;53.154;17.916;2024-01-15T08:58:50;98096.22;;;0.75;95.76
76726;BME280;65651;53.154;17.916;2024-01-15T09:01:17;98098.08;;;0.67;95.68
76726;BME280;65651;53.154;17.916;2024-01-15T09:03:46;98084.49;;;0.63;95.66
76726;BME280;65651;53.154;17.916;2024-01-15T09:06:14;98084.52;;;0.63;95.42
76726;BME280;65651;53.154;17.916;2024-01-15T09:08:48;98079.42;;;0.68;95.77
76726;BME280;65651;53.154;17.916;2024-01-15T09:11:16;98079.46;;;0.71;95.63
76726;BME280;65651;53.154;17.916;2024-01-15T09:13:43;98076.44;;;0.70;95.64
76726;BME280;65651;53.154;17.916;2024-01-15T09:16:09;98074.80;;;0.66;95.73
76726;BME280;65651;53.154;17.916;2024-01-15T09:18:36;98073.72;;;0.57;95.44
76726;BME280;65651;53.154;17.916;2024-01-15T09:21:03;98074.02;;;0.50;95.55
76726;BME280;65651;53.154;17.916;2024-01-15T09:23:30;98067.63;;;0.47;95.66
76726;BME280;65651;53.154;17.916;2024-01-15T09:25:56;98072.39;;;0.40;95.68
76726;BME280;65651;53.154;17.916;2024-01-15T09:28:23;98075.48;;;0.45;96.06
76726;BME280;65651;53.154;17.916;2024-01-15T09:30:50;98066.58;;;0.43;96.46
76726;BME280;65651;53.154;17.916;2024-01-15T09:33:16;98075.48;;;0.50;96.65
76726;BME280;65651;53.154;17.916;2024-01-15T09:35:43;98075.89;;;0.57;96.76
76726;BME280;65651;53.154;17.916;2024-01-15T09:38:09;98067.60;;;0.62;96.59
76726;BME280;65651;53.154;17.916;2024-01-15T09:40:38;98065.67;;;0.64;96.72
76726;BME280;65651;53.154;17.916;2024-01-15T09:43:05;98074.91;;;0.72;96.68
76726;BME280;65651;53.154;17.916;2024-01-15T09:45:32;98071.20;;;0.75;96.37
76726;BME280;65651;53.154;17.916;2024-01-15T09:47:58;98073.61;;;0.77;96.59
76726;BME280;65651;53.154;17.916;2024-01-15T09:50:26;98081.13;;;0.74;96.32
76726;BME280;65651;53.154;17.916;2024-01-15T09:52:52;98078.59;;;0.71;96.00
76726;BME280;65651;53.154;17.916;2024-01-15T09:55:24;98091.58;;;0.59;96.15
76726;BME280;65651;53.154;17.916;2024-01-15T09:57:52;98092.45;;;0.39;96.69
76726;BME280;65651;53.154;17.916;2024-01-15T10:00:20;98081.25;;;0.17;97.73
76726;BME280;65651;53.154;17.916;2024-01-15T10:02:51;98088.70;;;0.03;98.30
76726;BME280;65651;53.154;17.916;2024-01-15T10:05:18;98100.66;;;0.05;98.36
76726;BME280;65651;53.154;17.916;2024-01-15T10:07:46;98095.80;;;0.14;98.42
76726;BME280;65651;53.154;17.916;2024-01-15T10:10:14;98094.92;;;0.33;98.17
76726;BME280;65651;53.154;17.916;2024-01-15T10:12:43;98086.94;;;0.54;98.30
76726;BME280;65651;53.154;17.916;2024-01-15T10:15:11;98080.63;;;0.61;98.63
76726;BME280;65651;53.154;17.916;2024-01-15T10:17:39;98080.98;;;0.66;98.63
76726;BME280;65651;53.154;17.916;2024-01-15T10:20:10;98084.34;;;0.88;98.37
76726;BME280;65651;53.154;17.916;2024-01-15T10:22:41;98080.32;;;1.01;98.59
76726;BME280;65651;53.154;17.916;2024-01-15T10:25:13;98082.61;;;1.01;98.21
76726;BME280;65651;53.154;17.916;2024-01-15T10:27:40;98082.89;;;1.05;98.35
76726;BME280;65651;53.154;17.916;2024-01-15T10:30:11;98077.23;;;1.13;98.01
76726;BME280;65651;53.154;17.916;2024-01-15T10:33:00;98067.92;;;1.12;97.89
76726;BME280;65651;53.154;17.916;2024-01-15T10:35:29;98060.96;;;1.11;97.44
76726;BME280;65651;53.154;17.916;2024-01-15T10:38:00;98061.73;;;1.12;97.34
76726;BME280;65651;53.154;17.916;2024-01-15T10:40:27;98064.30;;;1.11;97.18
76726;BME280;65651;53.154;17.916;2024-01-15T10:42:54;98062.05;;;1.05;97.06
76726;BME280;65651;53.154;17.916;2024-01-15T10:45:22;98060.25;;;0.98;96.91
76726;BME280;65651;53.154;17.916;2024-01-15T10:47:49;98057.53;;;1.06;96.64
76726;BME280;65651;53.154;17.916;2024-01-15T10:50:16;98059.41;;;1.27;96.57
76726;BME280;65651;53.154;17.916;2024-01-15T10:52:45;98057.63;;;1.45;96.38
76726;BME280;65651;53.154;17.916;2024-01-15T10:55:12;98058.58;;;1.51;96.42
76726;BME280;65651;53.154;17.916;2024-01-15T10:57:39;98062.27;;;1.43;96.22
76726;BME280;65651;53.154;17.916;2024-01-15T11:00:06;98056.33;;;1.29;96.06
76726;BME280;65651;53.154;17.916;2024-01-15T11:02:36;98061.64;;;1.17;95.82
76726;BME280;65651;53.154;17.916;2024-01-15T11:05:04;98075.48;;;0.83;97.50
76726;BME280;65651;53.154;17.916;2024-01-15T11:07:31;98077.14;;;0.36;99.49
76726;BME280;65651;53.154;17.916;2024-01-15T11:09:58;98078.02;;;0.17;99.96
76726;BME280;65651;53.154;17.916;2024-01-15T11:12:25;98079.61;;;0.02;100.00
76726;BME280;65651;53.154;17.916;2024-01-15T11:14:52;98080.77;;;-0.14;100.00
76726;BME280;65651;53.154;17.916;2024-01-15T11:17:21;98082.33;;;-0.31;100.00
76726;BME280;65651;53.154;17.916;2024-01-15T11:19:48;98077.09;;;-0.40;100.00
76726;BME280;65651;53.154;17.916;2024-01-15T11:25:14;98079.88;;;-0.45;100.00
76726;BME280;65651;53.154;17.916;2024-01-15T11:30:10;98078.73;;;-0.52;100.00
76726;BME280;65651;53.154;17.916;2024-01-15T11:32:37;98069.37;;;-0.43;100.00
76726;BME280;65651;53.154;17.916;2024-01-15T11:35:08;98069.61;;;-0.33;100.00
76726;BME280;65651;53.154;17.916;2024-01-15T11:42:49;98069.06;;;0.04;100.00
76726;BME280;65651;53.154;17.916;2024-01-15T11:45:19;98059.81;;;0.05;100.00
76726;BME280;65651;53.154;17.916;2024-01-15T11:50:21;69325.20;;;-80.14;59.60
76726;BME280;65651;53.154;17.916;2024-01-15T11:53:01;46759.10;;;-134.99;34.53
76726;BME280;65651;53.154;17.916;2024-01-15T11:55:34;-1.00;;;-128.00;-1.00
76726;BME280;65651;53.154;17.916;2024-01-15T11:58:02;-1.00;;;-128.00;-1.00
76726;BME280;65651;53.154;17.916;2024-01-15T12:00:32;-1.00;;;-128.00;-1.00
76726;BME280;65651;53.154;17.916;2024-01-15T12:02:59;-1.00;;;-128.00;-1.00
76726;BME280;65651;53.154;17.916;2024-01-15T12:05:26;-1.00;;;-128.00;-1.00
76726;BME280;65651;53.154;17.916;2024-01-15T12:07:52;-1.00;;;-128.00;-1.00
76726;BME280;65651;53.154;17.916;2024-01-15T12:10:20;-1.00;;;-128.00;-1.00
76726;BME280;65651;53.154;17.916;2024-01-15T12:13:02;-1.00;;;-128.00;-1.00
76726;BME280;65651;53.154;17.916;2024-01-15T12:15:32;-1.00;;;-128.00;-1.00
76726;BME280;65651;53.154;17.916;2024-01-15T12:18:01;-1.00;;;-128.00;-1.00
76726;BME280;65651;53.154;17.916;2024-01-15T12:20:31;-1.00;;;-128.00;-1.00
76726;BME280;65651;53.154;17.916;2024-01-15T12:22:58;-1.00;;;-128.00;-1.00
76726;BME280;65651;53.154;17.916;2024-01-15T12:25:26;-1.00;;;-128.00;-1.00
76726;BME280;65651;53.154;17.916;2024-01-15T12:27:54;-1.00;;;-128.00;-1.00
76726;BME280;65651;53.154;17.916;2024-01-15T12:30:21;-1.00;;;-128.00;-1.00
76726;BME280;65651;53.154;17.916;2024-01-15T12:32:48;-1.00;;;-128.00;-1.00
76726;BME280;65651;53.154;17.916;2024-01-15T12:35:15;-1.00;;;-128.00;-1.00
76726;BME280;65651;53.154;17.916;2024-01-15T12:37:43;-1.00;;;-128.00;-1.00
76726;BME280;65651;53.154;17.916;2024-01-15T12:40:10;-1.00;;;-128.00;-1.00
76726;BME280;65651;53.154;17.916;2024-01-15T12:42:37;-1.00;;;-128.00;-1.00
76726;BME280;65651;53.154;17.916;2024-01-15T12:45:06;-1.00;;;-128.00;-1.00
76726;BME280;65651;53.154;17.916;2024-01-15T12:47:33;-1.00;;;-128.00;-1.00
76726;BME280;65651;53.154;17.916;2024-01-15T12:49:59;-1.00;;;-128.00;-1.00
76726;BME280;65651;53.154;17.916;2024-01-15T12:52:29;-1.00;;;-128.00;-1.00
76726;BME280;65651;53.154;17.916;2024-01-15T12:54:56;-1.00;;;-128.00;-1.00
76726;BME280;65651;53.154;17.916;2024-01-15T12:57:23;-1.00;;;-128.00;-1.00
76726;BME280;65651;53.154;17.916;2024-01-15T12:59:50;-1.00;;;-128.00;-1.00
76726;BME280;65651;53.154;17.916;2024-01-15T13:02:16;-1.00;;;-128.00;-1.00
76726;BME280;65651;53.154;17.916;2024-01-15T13:04:44;-1.00;;;-128.00;-1.00
76726;BME280;65651;53.154;17.916;2024-01-15T13:07:10;-1.00;;;-128.00;-1.00
76726;BME280;65651;53.154;17.916;2024-01-15T13:09:37;-1.00;;;-128.00;-1.00